HE32 weather

Al Mansurah Airport
Dakahlia Governorate, Egypt

Public forecast

Using degrees Celsius for public forecast. Weather courtesy of forecast.io.

Closest aviation weather report (METAR) to Al Mansurah Airport

Closest report is Port Said Airport, 45.5 nm (84.2 km) ENE. Retrieved 2019/10/14 22:00 UTC (51 minutes ago):

HEPS 142200Z 27004KT CAVOK 26/23 Q1013 NOSIG

Closest aviation forecast (TAF) to Al Mansurah Airport

Closest forecast is Port Said Airport, 45.5 nm (84.2 km) ENE. Retrieved 2019/10/14 18:54 UTC (4 hours ago):

TAF HEPS 141700Z 1418/1524 01009KT 9999 SCT025 TEMPO 1500/1506 VRB03KT 3000BR NSC